CheckWX is a tool to help pilots better visualize weather data.  It is not intended as a substitute for an official pre-flight weather briefing.

21:16:30 UTC

KMTN TAF
Martin State Airport
Baltimore, Maryland, USA
KMTN 191725Z 1918/2018 04004KT P6SM SKC FM192000 VRB04KT P6SM SKC

Sep-19@
18:00 UTC

Sep-19 @ 18:00 UTC

Sep-19@
20:00 UTC

Sep-19 @ 20:00 UTC

KMTN 191725Z 1918/2018 04004KT P6SM SKC

Expired

Wind
  • 040° at 4 KTS
Cloud Levels
  • Clear skies

Sep-19@
20:00 UTC

Sep-19 @ 20:00 UTC

Sep-20@
18:00 UTC

Sep-20 @ 18:00 UTC

FM192000 VRB04KT P6SM SKC

From

From Standard forecast or significant change

Wind
  • Variable at 4 KTS
Cloud Levels
  • Clear skies